Terminal Aerodrome Forecast
Issued by NWS

Home | Current Version | Previous Version | Text Only | Print | Product List | Glossary On
Versions: 1 2 3 4 5 6 7 8 9 10 11 12
000
FTUS45 KTFX 201720
TAFBZN
TAF
KBZN 201720Z 2018/2124 VRB06KT P6SM VCSH SCT035 BKN070
     FM202100 25019G29KT P6SM VCTS SCT040CB BKN080
     FM210200 23011KT P6SM VCSH SCT040 BKN080 PROB30 2103/2109 -SHRA
      SCT025 BKN040=

USA.gov is the U.S. government's official web portal to all federal, state and local government web resources and services.